Time;durP1;ratioP1;P1;durP2;ratioP2;P2;SDS_P1;SDS_P2;PMS_P1;PMS_P2;Temp;Humidity;BMP_temperature;BMP_pressure;BME280_temperature;BME280_humidity;BME280_pressure;Samples;Min_cycle;Max_cycle;Signal;HPM_P1;HPM_P2
2022/05/09 00:02:04;;;;;;;6.00;5.57;;;;;;;;;;5084004;28;20200;-69
2022/05/09 00:04:30;;;;;;;5.95;5.50;;;;;;;;;;5084501;28;20200;-69
2022/05/09 00:06:58;;;;;;;5.68;5.30;;;;;;;;;;5084134;28;20539;-69
2022/05/09 00:09:24;;;;;;;5.88;5.47;;;;;;;;;;5084064;28;20193;-69
2022/05/09 00:11:50;;;;;;;5.57;5.10;;;;;;;;;;5084568;28;20197;-69
2022/05/09 00:14:16;;;;;;;6.93;5.70;;;;;;;;;;5084501;28;20204;-69
2022/05/09 00:16:43;;;;;;;6.00;5.22;;;;;;;;;;5083779;28;20205;-69
2022/05/09 00:19:10;;;;;;;8.88;5.75;;;;;;;;;;5083874;28;20216;-69
2022/05/09 00:21:40;;;;;;;7.25;5.50;;;;;;;;;;5084185;28;20263;-69
2022/05/09 00:24:08;;;;;;;5.72;5.22;;;;;;;;;;5084067;28;20428;-69
2022/05/09 00:26:35;;;;;;;5.70;5.40;;;;;;;;;;5083639;28;20215;-69
2022/05/09 00:29:02;;;;;;;6.47;5.93;;;;;;;;;;5083694;28;20383;-69
2022/05/09 00:31:28;;;;;;;6.22;5.72;;;;;;;;;;5084012;28;20196;-69
2022/05/09 00:33:54;;;;;;;5.90;5.50;;;;;;;;;;5083877;28;20200;-69
2022/05/09 00:36:21;;;;;;;6.88;6.38;;;;;;;;;;5083442;28;20203;-69
2022/05/09 00:38:47;;;;;;;6.47;6.00;;;;;;;;;;5083611;28;20523;-69
2022/05/09 00:41:34;;;;;;;7.75;7.15;;;;;;;;;;5083607;28;20302;-69
2022/05/09 00:44:01;;;;;;;7.38;6.78;;;;;;;;;;5083722;28;20197;-69
2022/05/09 00:46:28;;;;;;;6.90;6.25;;;;;;;;;;5083356;28;20196;-69
2022/05/09 00:48:56;;;;;;;7.15;6.45;;;;;;;;;;5083496;28;20196;-69
2022/05/09 00:51:24;;;;;;;7.05;6.50;;;;;;;;;;5083432;28;20211;-69
2022/05/09 00:53:51;;;;;;;7.47;6.88;;;;;;;;;;5083190;28;20219;-67
2022/05/09 00:56:22;;;;;;;6.40;6.00;;;;;;;;;;5082898;28;20208;-69
2022/05/09 00:58:50;;;;;;;6.90;6.25;;;;;;;;;;5083293;28;20212;-69
2022/05/09 01:01:17;;;;;;;7.45;6.85;;;;;;;;;;5083010;28;20196;-69
2022/05/09 01:03:48;;;;;;;7.38;6.85;;;;;;;;;;5082971;28;20204;-69
2022/05/09 01:06:15;;;;;;;7.82;7.22;;;;;;;;;;5082741;28;20222;-69
2022/05/09 01:08:42;;;;;;;8.05;7.32;;;;;;;;;;5082851;28;20193;-69
2022/05/09 01:11:10;;;;;;;7.28;6.60;;;;;;;;;;5083422;28;20196;-69
2022/05/09 01:16:41;;;;;;;7.82;6.55;;;;;;;;;;5082162;28;20190;-69
2022/05/09 01:19:12;;;;;;;7.15;6.65;;;;;;;;;;5082611;28;20212;-69
2022/05/09 01:21:41;;;;;;;7.25;6.57;;;;;;;;;;5082404;28;20203;-69
2022/05/09 01:24:19;;;;;;;6.97;6.40;;;;;;;;;;5082932;28;20219;-67
2022/05/09 01:26:46;;;;;;;7.10;6.50;;;;;;;;;;5082706;28;20222;-67
2022/05/09 01:29:14;;;;;;;7.47;6.82;;;;;;;;;;5082787;28;20200;-67
2022/05/09 01:31:42;;;;;;;7.13;6.63;;;;;;;;;;5082474;28;20207;-69
2022/05/09 01:34:09;;;;;;;6.95;6.40;;;;;;;;;;5082499;28;20508;-69
2022/05/09 01:36:36;;;;;;;6.85;6.35;;;;;;;;;;5082579;28;20203;-69
2022/05/09 01:39:05;;;;;;;7.07;6.45;;;;;;;;;;5082525;28;20221;-69
2022/05/09 01:41:36;;;;;;;7.35;6.75;;;;;;;;;;5082531;28;20203;-69
2022/05/09 01:44:02;;;;;;;7.05;6.55;;;;;;;;;;5082445;28;20197;-69
2022/05/09 01:46:30;;;;;;;7.05;6.65;;;;;;;;;;5082612;28;20204;-69
2022/05/09 01:51:42;;;;;;;7.35;6.65;;;;;;;;;;5082470;28;20591;-69
2022/05/09 01:54:10;;;;;;;6.72;6.32;;;;;;;;;;5082579;28;20196;-69
2022/05/09 01:56:38;;;;;;;6.82;6.38;;;;;;;;;;5082093;28;20204;-69
2022/05/09 01:59:06;;;;;;;7.45;6.93;;;;;;;;;;5082133;28;20536;-69
2022/05/09 02:01:35;;;;;;;7.75;7.03;;;;;;;;;;5082454;28;20522;-69
2022/05/09 02:04:01;;;;;;;7.20;6.70;;;;;;;;;;5082128;28;20212;-69
2022/05/09 02:06:28;;;;;;;8.23;7.40;;;;;;;;;;5081934;28;20248;-69
2022/05/09 02:08:54;;;;;;;8.73;8.02;;;;;;;;;;5082186;28;20193;-69
2022/05/09 02:11:22;;;;;;;8.02;7.22;;;;;;;;;;5082237;28;20196;-69
2022/05/09 02:13:48;;;;;;;8.40;7.70;;;;;;;;;;5082062;28;20203;-69
2022/05/09 02:16:14;;;;;;;8.27;7.65;;;;;;;;;;5082055;28;20196;-69
2022/05/09 02:18:41;;;;;;;7.90;7.40;;;;;;;;;;5082144;28;20215;-69
2022/05/09 02:21:07;;;;;;;7.82;7.13;;;;;;;;;;5082309;28;20196;-69
2022/05/09 02:23:34;;;;;;;7.97;7.38;;;;;;;;;;5081973;28;20196;-69
2022/05/09 02:26:00;;;;;;;8.25;7.47;;;;;;;;;;5081762;28;20196;-69
2022/05/09 02:28:28;;;;;;;8.43;7.60;;;;;;;;;;5082346;28;20203;-69
2022/05/09 02:30:54;;;;;;;8.15;7.43;;;;;;;;;;5082452;28;20419;-69
2022/05/09 02:33:20;;;;;;;8.05;7.28;;;;;;;;;;5086129;28;20219;-69
2022/05/09 02:35:47;;;;;;;8.43;7.65;;;;;;;;;;5086110;28;20242;-69
2022/05/09 02:38:13;;;;;;;8.75;7.95;;;;;;;;;;5085815;28;20197;-69
2022/05/09 02:40:40;;;;;;;9.27;8.43;;;;;;;;;;5085671;28;20212;-69
2022/05/09 02:43:06;;;;;;;8.98;8.15;;;;;;;;;;5085794;28;20204;-69
2022/05/09 02:45:34;;;;;;;9.40;8.60;;;;;;;;;;5083428;28;20235;-68
2022/05/09 02:48:01;;;;;;;9.68;8.77;;;;;;;;;;5091058;28;20380;-68
2022/05/09 02:50:27;;;;;;;9.50;8.55;;;;;;;;;;5099581;28;20204;-69
2022/05/09 02:52:54;;;;;;;11.27;9.32;;;;;;;;;;5098782;28;20207;-69
2022/05/09 02:55:21;;;;;;;10.70;8.70;;;;;;;;;;5100019;28;20389;-69
2022/05/09 02:57:48;;;;;;;9.43;8.60;;;;;;;;;;5099487;28;20554;-69
2022/05/09 03:00:16;;;;;;;10.07;8.48;;;;;;;;;;5099467;28;20230;-69
2022/05/09 03:04:38;;;;;;;9.10;8.30;;;;;;;;;;5100028;28;20550;-69
2022/05/09 03:05:29;;;;;;;10.18;9.23;;;;;;;;;;5099922;28;20547;-69
2022/05/09 03:07:56;;;;;;;9.65;8.85;;;;;;;;;;5099359;28;20211;-69
2022/05/09 03:10:23;;;;;;;9.00;8.15;;;;;;;;;;5092634;28;20209;-69
2022/05/09 03:12:50;;;;;;;9.88;8.63;;;;;;;;;;5079866;28;20535;-69
2022/05/09 03:15:17;;;;;;;10.05;9.10;;;;;;;;;;5079679;28;20297;-69
2022/05/09 03:17:44;;;;;;;10.57;9.32;;;;;;;;;;5079032;28;20460;-69
2022/05/09 03:20:11;;;;;;;9.20;8.40;;;;;;;;;;5079067;28;20563;-69
2022/05/09 03:22:37;;;;;;;11.27;10.18;;;;;;;;;;5079099;28;20496;-69
2022/05/09 03:25:04;;;;;;;9.98;9.02;;;;;;;;;;5079124;28;20464;-69
2022/05/09 03:27:30;;;;;;;10.43;8.85;;;;;;;;;;5078711;28;20434;-69
2022/05/09 03:29:57;;;;;;;9.82;8.95;;;;;;;;;;5078580;28;20205;-69
2022/05/09 03:32:23;;;;;;;9.80;8.90;;;;;;;;;;5079090;28;20208;-69
2022/05/09 03:34:51;;;;;;;9.90;9.00;;;;;;;;;;5079076;28;20216;-69
2022/05/09 03:37:17;;;;;;;10.57;9.48;;;;;;;;;;5078993;28;20209;-69
2022/05/09 03:39:43;;;;;;;11.45;9.90;;;;;;;;;;5078814;28;20242;-69
2022/05/09 03:42:09;;;;;;;10.18;9.30;;;;;;;;;;5095472;28;20210;-69
2022/05/09 03:44:36;;;;;;;10.52;9.63;;;;;;;;;;5098819;28;20511;-69
2022/05/09 03:47:02;;;;;;;11.95;9.15;;;;;;;;;;5098569;28;20246;-69
2022/05/09 03:49:28;;;;;;;10.93;9.95;;;;;;;;;;5098555;28;20203;-69
2022/05/09 03:51:56;;;;;;;9.63;8.75;;;;;;;;;;5098852;28;20207;-69
2022/05/09 03:54:22;;;;;;;10.55;9.48;;;;;;;;;;5098940;28;20215;-69
2022/05/09 03:56:48;;;;;;;9.90;8.98;;;;;;;;;;5098395;28;20238;-69
2022/05/09 03:59:14;;;;;;;10.23;9.32;;;;;;;;;;5098469;28;20212;-69
2022/05/09 04:01:42;;;;;;;11.30;10.25;;;;;;;;;;5099086;28;20539;-69
2022/05/09 04:04:08;;;;;;;10.20;9.30;;;;;;;;;;5098898;28;20539;-69
2022/05/09 04:06:35;;;;;;;10.60;9.60;;;;;;;;;;5098391;28;20424;-69
2022/05/09 04:09:02;;;;;;;11.13;9.55;;;;;;;;;;5098473;28;20592;-69
2022/05/09 04:11:29;;;;;;;10.05;9.10;;;;;;;;;;5098723;28;20461;-69
2022/05/09 04:13:55;;;;;;;10.43;9.43;;;;;;;;;;5098735;28;20207;-69
2022/05/09 04:19:05;;;;;;;10.55;9.55;;;;;;;;;;5098770;28;20225;-69
2022/05/09 04:21:32;;;;;;;12.10;10.85;;;;;;;;;;5098642;28;20228;-69
2022/05/09 04:23:58;;;;;;;10.68;9.68;;;;;;;;;;5098520;28;20214;-69
2022/05/09 04:26:26;;;;;;;10.85;8.98;;;;;;;;;;5098100;28;20523;-69
2022/05/09 04:28:53;;;;;;;9.93;9.00;;;;;;;;;;5098112;28;20230;-69
2022/05/09 04:31:20;;;;;;;9.38;8.57;;;;;;;;;;5098149;28;20204;-69
2022/05/09 04:33:46;;;;;;;10.13;9.27;;;;;;;;;;5098314;28;20207;-69
2022/05/09 04:36:12;;;;;;;10.43;9.50;;;;;;;;;;5098016;28;20211;-69
2022/05/09 04:38:42;;;;;;;10.18;9.38;;;;;;;;;;5097878;28;20207;-69
2022/05/09 04:41:10;;;;;;;12.40;9.77;;;;;;;;;;5098024;28;20551;-69
2022/05/09 04:43:37;;;;;;;10.35;9.38;;;;;;;;;;5098108;28;20275;-69
2022/05/09 04:46:04;;;;;;;11.40;10.30;;;;;;;;;;5097735;28;20648;-69
2022/05/09 04:48:31;;;;;;;10.43;9.52;;;;;;;;;;5098062;28;20207;-69
2022/05/09 04:50:57;;;;;;;12.13;10.93;;;;;;;;;;5098018;28;20396;-69
2022/05/09 04:53:24;;;;;;;12.20;11.00;;;;;;;;;;5098018;28;20217;-69
2022/05/09 04:55:50;;;;;;;11.02;10.02;;;;;;;;;;5096760;28;20480;-69
2022/05/09 04:58:17;;;;;;;12.93;11.18;;;;;;;;;;5097199;28;20531;-69
2022/05/09 05:00:45;;;;;;;11.52;10.45;;;;;;;;;;5097522;28;20235;-69
2022/05/09 05:03:12;;;;;;;12.27;9.95;;;;;;;;;;5097689;28;20216;-69
2022/05/09 05:05:38;;;;;;;11.32;10.25;;;;;;;;;;5097585;28;20230;-69
2022/05/09 05:08:05;;;;;;;11.50;9.85;;;;;;;;;;5097061;28;20208;-69
2022/05/09 05:10:31;;;;;;;11.18;10.13;;;;;;;;;;5097289;28;20507;-69
2022/05/09 05:12:58;;;;;;;12.93;10.82;;;;;;;;;;5097264;28;20204;-69
2022/05/09 05:15:24;;;;;;;13.02;9.90;;;;;;;;;;5097835;28;20519;-69
2022/05/09 05:17:52;;;;;;;11.65;10.35;;;;;;;;;;5096595;28;20207;-69
2022/05/09 05:20:19;;;;;;;11.95;9.82;;;;;;;;;;5096794;28;20288;-69
2022/05/09 05:22:47;;;;;;;9.80;8.90;;;;;;;;;;5096904;28;20249;-69
2022/05/09 05:25:14;;;;;;;11.80;10.15;;;;;;;;;;5096818;28;20204;-69
2022/05/09 05:27:40;;;;;;;11.55;10.45;;;;;;;;;;5095772;28;20435;-69
2022/05/09 05:30:08;;;;;;;12.00;9.45;;;;;;;;;;5096629;28;20757;-69
2022/05/09 05:32:36;;;;;;;11.77;9.82;;;;;;;;;;5096721;28;20208;-69
2022/05/09 05:35:05;;;;;;;12.10;10.18;;;;;;;;;;5096479;28;20279;-69
2022/05/09 05:37:32;;;;;;;11.98;10.85;;;;;;;;;;5096135;28;20249;-69
2022/05/09 05:39:58;;;;;;;12.77;11.48;;;;;;;;;;5096308;28;20567;-69
2022/05/09 05:42:25;;;;;;;14.13;12.38;;;;;;;;;;5096649;28;20208;-69
2022/05/09 05:44:51;;;;;;;13.48;11.93;;;;;;;;;;5096995;28;20519;-69
2022/05/09 05:47:18;;;;;;;16.05;12.48;;;;;;;;;;5096894;28;20444;-69
2022/05/09 05:49:45;;;;;;;13.68;12.23;;;;;;;;;;5096517;28;20214;-69
2022/05/09 05:52:13;;;;;;;13.60;12.20;;;;;;;;;;5096809;28;20235;-69
2022/05/09 05:54:41;;;;;;;17.58;12.73;;;;;;;;;;5096655;28;20211;-69
2022/05/09 05:57:08;;;;;;;14.93;12.35;;;;;;;;;;5096362;28;20512;-69
2022/05/09 05:59:34;;;;;;;14.85;13.38;;;;;;;;;;5096593;28;20215;-69
2022/05/09 06:02:01;;;;;;;15.07;12.77;;;;;;;;;;5096662;28;20223;-69
2022/05/09 06:04:27;;;;;;;13.85;12.18;;;;;;;;;;5096614;28;20215;-69
2022/05/09 06:06:53;;;;;;;18.15;13.60;;;;;;;;;;5095366;28;20223;-69
2022/05/09 06:09:21;;;;;;;14.98;12.93;;;;;;;;;;5096283;28;20207;-62
2022/05/09 06:11:47;;;;;;;14.88;13.02;;;;;;;;;;5096032;28;20212;-62
2022/05/09 06:14:13;;;;;;;15.43;13.45;;;;;;;;;;5096229;28;20207;-64
2022/05/09 06:16:42;;;;;;;13.82;12.45;;;;;;;;;;5096010;28;20207;-65
2022/05/09 06:19:08;;;;;;;16.83;13.57;;;;;;;;;;5095202;28;20239;-61
2022/05/09 06:21:37;;;;;;;14.70;13.02;;;;;;;;;;5096191;28;20219;-61
2022/05/09 06:24:04;;;;;;;14.00;12.60;;;;;;;;;;5096441;28;20464;-61
2022/05/09 06:26:32;;;;;;;15.10;13.60;;;;;;;;;;5096117;28;20467;-61
2022/05/09 06:28:59;;;;;;;16.52;13.05;;;;;;;;;;5095970;28;20214;-61
2022/05/09 06:31:25;;;;;;;18.05;13.95;;;;;;;;;;5096579;28;20270;-60
2022/05/09 06:33:51;;;;;;;20.10;14.55;;;;;;;;;;5096323;28;20199;-60
2022/05/09 06:36:17;;;;;;;17.45;13.63;;;;;;;;;;5096062;28;20203;-61
2022/05/09 06:38:44;;;;;;;14.27;12.77;;;;;;;;;;5096205;28;20215;-61
2022/05/09 06:41:10;;;;;;;14.23;12.63;;;;;;;;;;5096584;28;20227;-61
2022/05/09 06:43:38;;;;;;;15.75;14.00;;;;;;;;;;5097035;28;20207;-61
2022/05/09 06:46:04;;;;;;;15.77;13.35;;;;;;;;;;5096617;28;20307;-61
2022/05/09 06:48:30;;;;;;;21.35;14.23;;;;;;;;;;5095744;28;20549;-61
2022/05/09 06:50:56;;;;;;;14.30;12.35;;;;;;;;;;5096247;28;20413;-63
2022/05/09 06:53:23;;;;;;;14.70;12.55;;;;;;;;;;5096631;28;20216;-62
2022/05/09 06:55:50;;;;;;;17.95;13.80;;;;;;;;;;5099051;28;20199;-62
2022/05/09 06:58:17;;;;;;;17.40;13.02;;;;;;;;;;5098835;28;20204;-62
2022/05/09 07:00:45;;;;;;;13.30;11.93;;;;;;;;;;5099012;28;20219;-62
2022/05/09 07:03:12;;;;;;;15.77;12.90;;;;;;;;;;5098736;28;20219;-62
2022/05/09 07:05:38;;;;;;;15.27;13.02;;;;;;;;;;5098233;28;20223;-62
2022/05/09 07:08:05;;;;;;;17.33;12.73;;;;;;;;;;5099064;28;20249;-62
2022/05/09 07:10:31;;;;;;;13.98;12.55;;;;;;;;;;5099010;28;20200;-62
2022/05/09 07:12:58;;;;;;;15.07;13.43;;;;;;;;;;5098259;28;20210;-62
2022/05/09 07:15:25;;;;;;;17.75;13.98;;;;;;;;;;5098921;28;20204;-62
2022/05/09 07:17:53;;;;;;;22.25;13.63;;;;;;;;;;5098988;28;20211;-62
2022/05/09 07:20:20;;;;;;;14.95;13.50;;;;;;;;;;5102287;28;20203;-62
2022/05/09 07:22:47;;;;;;;13.88;12.43;;;;;;;;;;5103048;28;20244;-63
2022/05/09 07:25:14;;;;;;;14.65;13.00;;;;;;;;;;5102241;28;20207;-62
2022/05/09 07:27:42;;;;;;;15.10;12.45;;;;;;;;;;5102925;28;20204;-62
2022/05/09 07:30:09;;;;;;;13.10;11.25;;;;;;;;;;5104235;28;20499;-62
2022/05/09 07:32:36;;;;;;;14.98;10.38;;;;;;;;;;5102054;28;20203;-62
2022/05/09 07:35:04;;;;;;;12.75;10.35;;;;;;;;;;5102543;28;20209;-62
2022/05/09 07:37:30;;;;;;;12.85;10.38;;;;;;;;;;5102051;28;20203;-61
2022/05/09 07:39:57;;;;;;;16.30;10.85;;;;;;;;;;5102175;28;20204;-63
2022/05/09 07:42:23;;;;;;;19.75;13.93;;;;;;;;;;5102262;28;20232;-62
2022/05/09 07:44:52;;;;;;;20.42;11.13;;;;;;;;;;5101965;28;20211;-63
2022/05/09 07:47:18;;;;;;;12.30;10.88;;;;;;;;;;5101737;28;20204;-62
2022/05/09 07:49:45;;;;;;;10.77;9.68;;;;;;;;;;5101999;28;20429;-62
2022/05/09 07:52:13;;;;;;;9.45;8.65;;;;;;;;;;5101936;28;20271;-62
2022/05/09 07:54:39;;;;;;;10.15;8.45;;;;;;;;;;5102183;28;20208;-62
2022/05/09 07:57:05;;;;;;;10.25;7.60;;;;;;;;;;5101561;28;20576;-62
2022/05/09 07:59:32;;;;;;;10.32;7.95;;;;;;;;;;5101481;28;20211;-63
2022/05/09 08:01:58;;;;;;;11.13;8.57;;;;;;;;;;5100828;28;20251;-61
2022/05/09 08:04:24;;;;;;;9.98;8.20;;;;;;;;;;5101418;28;20207;-62
2022/05/09 08:06:51;;;;;;;10.98;8.70;;;;;;;;;;5100792;28;20232;-62
2022/05/09 08:09:18;;;;;;;8.75;7.85;;;;;;;;;;5100954;28;20523;-62
2022/05/09 08:11:45;;;;;;;7.95;7.28;;;;;;;;;;5100917;28;20426;-62
2022/05/09 08:14:12;;;;;;;8.48;7.68;;;;;;;;;;5100734;28;20503;-61
2022/05/09 08:16:39;;;;;;;8.30;7.50;;;;;;;;;;5100668;28;20499;-61
2022/05/09 08:19:05;;;;;;;8.35;7.32;;;;;;;;;;5101064;28;20212;-61
2022/05/09 08:21:33;;;;;;;9.25;8.07;;;;;;;;;;5100708;28;20586;-61
2022/05/09 08:24:00;;;;;;;8.38;7.13;;;;;;;;;;5100686;28;20278;-61
2022/05/09 08:26:27;;;;;;;7.38;6.93;;;;;;;;;;5100336;28;20199;-62
2022/05/09 08:28:54;;;;;;;8.30;7.32;;;;;;;;;;5100499;28;20440;-62
2022/05/09 08:31:21;;;;;;;9.07;7.13;;;;;;;;;;5100763;28;20199;-62
2022/05/09 08:33:48;;;;;;;9.98;8.90;;;;;;;;;;5100704;28;20202;-62
2022/05/09 08:36:45;;;;;;;7.47;6.70;;;;;;;;;;5100443;28;20526;-62
2022/05/09 08:39:01;;;;;;;6.80;6.20;;;;;;;;;;5100289;28;20238;-61
2022/05/09 08:41:31;;;;;;;6.50;5.93;;;;;;;;;;5100163;28;20273;-61
2022/05/09 08:44:03;;;;;;;7.13;6.53;;;;;;;;;;5100554;28;20226;-61
2022/05/09 08:46:35;;;;;;;9.55;8.60;;;;;;;;;;5100026;28;20210;-61
2022/05/09 08:49:09;;;;;;;8.65;6.70;;;;;;;;;;5100171;28;20257;-61
2022/05/09 08:51:43;;;;;;;6.45;5.90;;;;;;;;;;5100130;28;20203;-61
2022/05/09 08:54:12;;;;;;;7.50;6.78;;;;;;;;;;5100155;28;20428;-61
2022/05/09 08:56:41;;;;;;;6.32;5.28;;;;;;;;;;5099952;28;20211;-61
2022/05/09 08:59:11;;;;;;;6.25;5.63;;;;;;;;;;5100268;28;20249;-62
2022/05/09 09:01:41;;;;;;;7.32;5.53;;;;;;;;;;5099923;28;20307;-61
2022/05/09 09:04:20;;;;;;;6.47;5.97;;;;;;;;;;5099760;28;20214;-61
2022/05/09 09:06:58;;;;;;;6.20;5.80;;;;;;;;;;5099771;28;20246;-61
2022/05/09 09:09:31;;;;;;;8.68;5.70;;;;;;;;;;5099992;28;20437;-61
2022/05/09 09:12:01;;;;;;;6.20;5.32;;;;;;;;;;5100587;28;20200;-61
2022/05/09 09:14:29;;;;;;;5.57;5.18;;;;;;;;;;5100705;28;20249;-61
2022/05/09 09:17:04;;;;;;;7.72;5.13;;;;;;;;;;5100557;28;20208;-61
2022/05/09 09:19:49;;;;;;;6.88;4.88;;;;;;;;;;5100145;28;20206;-61
2022/05/09 09:22:20;;;;;;;5.55;5.07;;;;;;;;;;5089974;28;20231;-61
2022/05/09 09:24:58;;;;;;;5.35;4.95;;;;;;;;;;5100318;28;20208;-61
2022/05/09 09:27:33;;;;;;;5.25;4.93;;;;;;;;;;5100145;28;20565;-62
2022/05/09 09:30:02;;;;;;;6.53;4.75;;;;;;;;;;5100471;28;20208;-61
2022/05/09 09:32:28;;;;;;;5.75;5.18;;;;;;;;;;5100074;28;20199;-62
2022/05/09 09:34:57;;;;;;;5.22;4.80;;;;;;;;;;5100334;28;20204;-62
2022/05/09 09:37:34;;;;;;;4.93;4.55;;;;;;;;;;5099686;28;20550;-62
2022/05/09 09:40:00;;;;;;;4.85;4.50;;;;;;;;;;5100047;28;20211;-62
2022/05/09 09:42:27;;;;;;;6.18;5.35;;;;;;;;;;5099203;28;20416;-62
2022/05/09 09:44:56;;;;;;;5.32;4.93;;;;;;;;;;5099935;28;20203;-62
2022/05/09 09:47:23;;;;;;;6.22;4.65;;;;;;;;;;5099573;28;20504;-62
2022/05/09 09:49:51;;;;;;;6.22;4.82;;;;;;;;;;5100223;28;20211;-62
2022/05/09 09:52:19;;;;;;;5.10;4.70;;;;;;;;;;5099887;28;20203;-62
2022/05/09 09:54:48;;;;;;;7.80;4.53;;;;;;;;;;5100013;28;20211;-62
2022/05/09 09:57:17;;;;;;;4.88;4.57;;;;;;;;;;5099601;28;20511;-62
2022/05/09 09:59:44;;;;;;;5.63;5.22;;;;;;;;;;5099837;28;20514;-62
2022/05/09 10:02:16;;;;;;;5.85;4.63;;;;;;;;;;5099462;28;20231;-63
2022/05/09 10:04:43;;;;;;;5.60;5.10;;;;;;;;;;5099335;28;20538;-63
2022/05/09 10:07:12;;;;;;;5.32;5.03;;;;;;;;;;5099335;28;20208;-63
2022/05/09 10:09:40;;;;;;;5.85;5.45;;;;;;;;;;5099733;28;20204;-63
2022/05/09 10:12:20;;;;;;;5.20;4.80;;;;;;;;;;5099872;28;20439;-62
2022/05/09 10:14:47;;;;;;;5.53;5.15;;;;;;;;;;5099632;28;20270;-63
2022/05/09 10:17:16;;;;;;;5.95;4.90;;;;;;;;;;5099096;28;20203;-63
2022/05/09 10:19:43;;;;;;;5.65;5.13;;;;;;;;;;5098943;28;20204;-63
2022/05/09 10:24:57;;;;;;;5.05;4.57;;;;;;;;;;5079241;28;20202;-63
2022/05/09 10:27:27;;;;;;;5.32;4.88;;;;;;;;;;5086964;28;20204;-63
2022/05/09 10:29:56;;;;;;;4.88;4.55;;;;;;;;;;5099480;28;20210;-63
2022/05/09 10:32:24;;;;;;;4.80;4.40;;;;;;;;;;5099295;28;20557;-62
2022/05/09 10:34:55;;;;;;;5.25;4.75;;;;;;;;;;5099454;28;20207;-62
2022/05/09 10:37:25;;;;;;;5.72;5.22;;;;;;;;;;5098769;28;20210;-62
2022/05/09 10:39:54;;;;;;;5.32;4.82;;;;;;;;;;5099241;28;20204;-61
2022/05/09 10:42:24;;;;;;;5.28;4.55;;;;;;;;;;5098874;28;20228;-63
2022/05/09 10:44:53;;;;;;;4.70;4.25;;;;;;;;;;5099270;28;20205;-62
2022/05/09 10:47:23;;;;;;;10.90;4.78;;;;;;;;;;5098462;28;20204;-62
2022/05/09 10:49:53;;;;;;;8.20;4.75;;;;;;;;;;5098940;28;20212;-62
2022/05/09 10:52:26;;;;;;;5.68;5.05;;;;;;;;;;5099048;28;20212;-64
2022/05/09 10:54:54;;;;;;;5.13;4.72;;;;;;;;;;5093478;28;20448;-61
2022/05/09 10:57:26;;;;;;;4.72;4.43;;;;;;;;;;5085095;28;20471;-61
2022/05/09 10:59:54;;;;;;;4.40;4.07;;;;;;;;;;5082751;28;20200;-61
2022/05/09 11:02:24;;;;;;;5.00;4.60;;;;;;;;;;5082330;28;20228;-61
2022/05/09 11:04:52;;;;;;;4.78;4.47;;;;;;;;;;5082165;28;20243;-59
2022/05/09 11:07:23;;;;;;;5.28;4.50;;;;;;;;;;5080858;28;20212;-59
2022/05/09 11:09:57;;;;;;;5.07;4.53;;;;;;;;;;5082277;28;20425;-60
2022/05/09 11:12:36;;;;;;;5.32;4.70;;;;;;;;;;5082411;28;20397;-60
2022/05/09 11:15:11;;;;;;;5.13;4.60;;;;;;;;;;5082550;28;20211;-60
2022/05/09 11:17:48;;;;;;;5.05;4.57;;;;;;;;;;5081897;28;20213;-61
2022/05/09 11:20:17;;;;;;;5.03;4.47;;;;;;;;;;5082459;28;20211;-63
2022/05/09 11:22:48;;;;;;;4.53;4.22;;;;;;;;;;5089087;28;20423;-63
2022/05/09 11:25:22;;;;;;;5.32;4.38;;;;;;;;;;5102316;28;20203;-62
2022/05/09 11:27:54;;;;;;;5.03;4.63;;;;;;;;;;5102196;28;20199;-62
2022/05/09 11:30:27;;;;;;;5.03;4.63;;;;;;;;;;5102613;28;20430;-62
2022/05/09 11:32:59;;;;;;;8.27;4.38;;;;;;;;;;5102774;28;20206;-61
2022/05/09 11:35:32;;;;;;;8.18;6.50;;;;;;;;;;5102370;28;20203;-63
2022/05/09 11:38:24;;;;;;;5.97;5.40;;;;;;;;;;5102072;28;20203;-63
2022/05/09 11:40:56;;;;;;;4.57;4.03;;;;;;;;;;5102252;28;20199;-61
2022/05/09 11:43:32;;;;;;;5.22;3.88;;;;;;;;;;5102109;28;20572;-62
2022/05/09 11:46:05;;;;;;;4.40;3.80;;;;;;;;;;5101647;28;20199;-62
2022/05/09 11:48:32;;;;;;;5.68;5.28;;;;;;;;;;5101777;28;20226;-62
2022/05/09 11:51:03;;;;;;;5.88;5.47;;;;;;;;;;5102134;28;20207;-62
2022/05/09 11:53:32;;;;;;;4.88;4.47;;;;;;;;;;5101762;28;20203;-61
2022/05/09 11:56:05;;;;;;;7.60;4.25;;;;;;;;;;5101157;28;20208;-61
2022/05/09 11:58:31;;;;;;;4.30;3.72;;;;;;;;;;5101852;28;20717;-62
2022/05/09 12:00:58;;;;;;;5.25;4.10;;;;;;;;;;5101945;28;20203;-63
2022/05/09 12:03:43;;;;;;;3.38;3.22;;;;;;;;;;5101425;28;20554;-62
2022/05/09 12:06:14;;;;;;;6.15;5.05;;;;;;;;;;5101001;28;20227;-63
2022/05/09 12:08:42;;;;;;;9.48;5.95;;;;;;;;;;5101955;28;20210;-62
2022/05/09 12:11:30;;;;;;;5.78;5.35;;;;;;;;;;5101341;28;20199;-63
2022/05/09 12:13:57;;;;;;;8.82;4.78;;;;;;;;;;5096684;28;20203;-63
2022/05/09 12:16:52;;;;;;;5.10;4.60;;;;;;;;;;5101046;28;20380;-63
2022/05/09 12:19:29;;;;;;;3.88;3.72;;;;;;;;;;5101241;28;20207;-64
2022/05/09 12:22:14;;;;;;;6.88;5.50;;;;;;;;;;5101358;28;20209;-63
2022/05/09 12:24:44;;;;;;;4.55;4.25;;;;;;;;;;5101361;28;20229;-63
2022/05/09 12:27:25;;;;;;;5.63;3.30;;;;;;;;;;5100797;28;20252;-63
2022/05/09 12:29:51;;;;;;;6.82;3.40;;;;;;;;;;5101059;28;20433;-63
2022/05/09 12:32:19;;;;;;;4.10;3.30;;;;;;;;;;5101236;28;20266;-62
2022/05/09 12:34:46;;;;;;;6.05;3.60;;;;;;;;;;5101110;28;20207;-62
2022/05/09 12:37:14;;;;;;;5.40;3.40;;;;;;;;;;5100592;28;20207;-62
2022/05/09 12:39:46;;;;;;;3.58;3.38;;;;;;;;;;5101080;28;20203;-62
2022/05/09 12:42:22;;;;;;;4.00;3.30;;;;;;;;;;5100974;28;20222;-62
2022/05/09 12:44:49;;;;;;;6.78;3.75;;;;;;;;;;5100783;28;20463;-62
2022/05/09 12:47:17;;;;;;;5.05;3.85;;;;;;;;;;5100052;28;20473;-62
2022/05/09 12:49:46;;;;;;;3.70;3.40;;;;;;;;;;5100664;28;20570;-63
2022/05/09 12:52:18;;;;;;;3.40;3.30;;;;;;;;;;5100785;28;20199;-63
2022/05/09 12:55:52;;;;;;;3.40;3.10;;;;;;;;;;5100827;28;20248;-63
2022/05/09 12:57:35;;;;;;;3.58;3.38;;;;;;;;;;5099610;28;20207;-63
2022/05/09 13:00:08;;;;;;;6.55;3.95;;;;;;;;;;5100419;28;20213;-63
2022/05/09 13:02:34;;;;;;;3.35;3.25;;;;;;;;;;5100434;28;20569;-64
2022/05/09 13:05:00;;;;;;;3.72;3.45;;;;;;;;;;5100523;28;20223;-64
2022/05/09 13:07:26;;;;;;;5.30;3.15;;;;;;;;;;5099583;28;20245;-63
2022/05/09 13:09:55;;;;;;;3.72;3.53;;;;;;;;;;5099199;28;20207;-63
2022/05/09 13:12:24;;;;;;;3.38;3.17;;;;;;;;;;5099855;28;20226;-63
2022/05/09 13:14:52;;;;;;;6.10;3.85;;;;;;;;;;5080120;28;20208;-64
2022/05/09 13:17:20;;;;;;;3.28;3.10;;;;;;;;;;5078730;28;20208;-64
2022/05/09 13:19:47;;;;;;;4.53;3.30;;;;;;;;;;5095447;28;20214;-63
2022/05/09 13:22:18;;;;;;;3.60;3.38;;;;;;;;;;5099858;28;20214;-63
2022/05/09 13:24:45;;;;;;;4.00;3.45;;;;;;;;;;5099282;28;20248;-63
2022/05/09 13:27:13;;;;;;;3.88;3.58;;;;;;;;;;5099891;28;20203;-63
2022/05/09 13:29:40;;;;;;;3.60;3.50;;;;;;;;;;5099628;28;20207;-64
2022/05/09 13:32:07;;;;;;;4.85;3.42;;;;;;;;;;5100020;28;20514;-64
2022/05/09 13:34:35;;;;;;;4.88;3.42;;;;;;;;;;5100035;28;20203;-64
2022/05/09 13:37:02;;;;;;;3.05;2.95;;;;;;;;;;5099383;28;20203;-64
2022/05/09 13:39:30;;;;;;;3.35;3.05;;;;;;;;;;5099627;28;20452;-64
2022/05/09 13:41:57;;;;;;;3.70;3.40;;;;;;;;;;5100060;28;20210;-64
2022/05/09 13:44:26;;;;;;;3.10;2.90;;;;;;;;;;5100212;28;20223;-64
2022/05/09 13:46:54;;;;;;;3.50;3.30;;;;;;;;;;5099548;28;20260;-63
2022/05/09 13:49:21;;;;;;;4.90;3.17;;;;;;;;;;5099561;28;20203;-63
2022/05/09 13:51:52;;;;;;;3.75;3.45;;;;;;;;;;5079182;28;20203;-63
2022/05/09 13:54:21;;;;;;;3.35;3.15;;;;;;;;;;5079694;28;20200;-64
2022/05/09 13:56:47;;;;;;;3.75;3.10;;;;;;;;;;5079360;28;20204;-63
2022/05/09 13:59:14;;;;;;;3.28;3.17;;;;;;;;;;5085901;28;20206;-64
2022/05/09 14:01:43;;;;;;;3.67;3.38;;;;;;;;;;5099050;28;20207;-64
2022/05/09 14:04:11;;;;;;;3.95;3.40;;;;;;;;;;5099183;28;20234;-64
2022/05/09 14:06:37;;;;;;;4.68;3.15;;;;;;;;;;5099671;28;20748;-64
2022/05/09 14:09:05;;;;;;;4.68;3.42;;;;;;;;;;5099387;28;20203;-64
2022/05/09 14:11:33;;;;;;;3.50;3.30;;;;;;;;;;5098852;28;20252;-63
2022/05/09 14:14:00;;;;;;;3.47;3.25;;;;;;;;;;5099481;28;20238;-63
2022/05/09 14:16:32;;;;;;;4.70;3.05;;;;;;;;;;5099161;28;20203;-63
2022/05/09 14:19:02;;;;;;;3.30;3.20;;;;;;;;;;5099264;28;20204;-64
2022/05/09 14:21:29;;;;;;;3.75;3.47;;;;;;;;;;5098580;28;20210;-64
2022/05/09 14:23:56;;;;;;;3.38;3.08;;;;;;;;;;5099326;28;20223;-63
2022/05/09 14:31:54;;;;;;;3.00;2.80;;;;;;;;;;5102726;28;20236;-63
2022/05/09 14:34:33;;;;;;;3.55;3.33;;;;;;;;;;5103198;28;20238;-64
2022/05/09 14:37:26;;;;;;;3.08;2.92;;;;;;;;;;5102781;28;20206;-62
2022/05/09 14:40:00;;;;;;;3.67;3.35;;;;;;;;;;5066707;28;20203;-62
2022/05/09 14:42:31;;;;;;;3.45;3.03;;;;;;;;;;5102796;28;20542;-62
2022/05/09 14:45:11;;;;;;;3.45;3.15;;;;;;;;;;5103456;28;20246;-62
2022/05/09 14:47:39;;;;;;;3.20;2.90;;;;;;;;;;5102706;28;20546;-62
2022/05/09 14:50:11;;;;;;;2.90;2.70;;;;;;;;;;5102711;28;20439;-62
2022/05/09 14:52:40;;;;;;;3.42;2.90;;;;;;;;;;5102454;28;20234;-62
2022/05/09 14:57:54;;;;;;;3.08;2.92;;;;;;;;;;5103009;28;20416;-62
2022/05/09 15:00:23;;;;;;;2.95;2.75;;;;;;;;;;5102805;28;20203;-62
2022/05/09 15:02:56;;;;;;;5.97;3.20;;;;;;;;;;5102311;28;20238;-62
2022/05/09 15:05:24;;;;;;;3.97;3.30;;;;;;;;;;5102575;28;20546;-64